Airfield :
LOGIN :

Register | Disclaimer

   EN    FR    IT 

 










Legend :    VFR   Marginal VFR   IFR   Intensive IFR   Very Intensive IFR
Visi :
Ceiling :
>= 8 km
>= 3000ft
5 to 8 km
1000 to 3000 ft
1500m to 5 km
500 to 1000 ft
800 to 1500m
200 to 500 ft
< 800m
< 200 ft
Symbols :   Thunderstorms  Fog  Heavy snow  Heavy precipitations  Wind > 20 kt
SIGMETs :     Misc.  Thunderstorms  Icing  Turbulence  Mountain Waves  Volcanic Ashes







- Airport Elevation : 90 ft
- IATA code : NTE
- Download approach charts


LFRS - Nantes

CURRENT METAR :
  • 251400Z AUTO 21017KT 9999 BKN034/// BKN054/// BKN084/// ///TCU 13/06 Q1003 TEMPO 20020G30KT 3000 TSRAGS BKN020TCU SCT050CB

EXPIRED METARs :
  • 251330Z AUTO 20017KT 9999 FEW038/// SCT072/// BKN100/// ///TCU 12/06 Q1003 TEMPO 20020G30KT 3000 TSRAGS BKN020TCU SCT050CB
  • 251300Z AUTO 23017G29KT 200V260 9999 BKN036/// OVC043/// ///CB 13/06 Q1003 TEMPO 3000 TSRAGS BKN008 BKN040CB
  • 251230Z AUTO 21018G30KT 180V240 9999 BKN034/// BKN043/// BKN054/// ///TCU 14/07 Q1002 TEMPO 3000 TSRAGS BKN008 BKN040CB
  • 251200Z AUTO 21016KT 190V250 9999 BKN033/// BKN039/// ///TCU 13/07 Q1002 TEMPO 20020G30KT 3000 TSRAGS BKN008 BKN040CB
  • 251130Z AUTO 21016KT 180V250 9999 SCT028 BKN034 BKN052 14/08 Q1002 TEMPO 20020G30KT 3000 TSRAGS BKN008 BKN040CB

TAF TAF LFRS
Valid from the 25 at 12:00 until the 26 at 18:00 UTC


251100Z 2512/2618 20011KT 9999 SCT030 SCT070
TEMPO 2512/2606 -SHRA BKN020TCU SCT050CB
PROB40
TEMPO 2512/2515 20020G30KT 3000 TSRAGS BKN008 BKN040CB
PROB30
TEMPO 2605/2607 3000 MIFG
BECMG 2607/2609 26010KT
TEMPO 2609/2618 -SHRA BKN020TCU SCT050CB
ATIS : +33 2 40 05 12 74
No reported NOTAMs for that airfield.



MET'MAP, your aeronautical weather chart ! - Copyright ORBIFLY December 2007 - Disclaimer

ORBIFLY MET'MAP TEAM :

Programming & Development : Alexandra Zaïnal
Concept & Development : Baudouin d'Aumeries
Co-Development & Prog : Marc-Olivier Méhu
Technical & hardware support : Manuel Goepfert

Contact : metmap@orbifly.com




SOURCES & CREDITS :

   NOAA